หน้าหลัก
METAR-TAF:

METAR-TAF

ท่าอากาศยาน :

Williams Field, แอนตาร์กติกา

ละติจูด: 77-52S, ลองจิจูด: 166-58E, ความสูง: 8 ม.

การสังเกตสภาพอากาศปัจจุบัน

รายงานได้ทำขึ้นเมื่อ 43 นาทีที่แล้ว ณ เวลา 05:55 UTC
ลม 17 นอตจากตะวันออกเฉียงเหนือ
อุณหภูมิ -20°C
ความชื้น 49%
ความกดอากาศ 1000 hPa
ทัศนวิสัย 10 กม. หรือมากกว่า
ท้องฟ้าแจ่มใส

METAR: NZCM 200555Z AUTO 05017KT 9999 CLR M20/M28 A2953 RMK AO2 PK WND 04027/0514 SLP006 T11981285 11198 21225 53019 $

เวลา: 06:38 (06:38 UTC)


TAF: หายไป

สังเกตการณ์สภาพอากาศและพยากรณ์อากาศของสนามบินมากกว่า 4000 แห่ง (รายงาน METAR และ TAF).

สถานีที่ดูได้จะแสดงไว้ด้วยจุดสีเหลืองและสีแดงบนแผนที่.

เลื่อนเมาส์ไปเหนือจุดเพื่อดูชื่อสถานี.

แล้วคลิกเพื่อดูสังเกตการณ์และการพยากรณ์สภาพอากาศ.

ในการเปลี่ยนแผนที่: คลิกที่ปุ่มสีเขียวที่มีกากบาทสีดำเพื่อซูมเข้า; ที่ปุ่มสีเขียวที่มีขีดเพื่อซูมออก; หรือที่ลูกศรสีเขียวเพื่อไปยังแผนที่ที่อยู่ติดกัน.


METAR-TAF: